Terminal Aerodrome Forecast
Issued by NWS Brownsville, TX

Home | Current Version | Previous Version | Text Only | Print | Product List | Glossary On
Versions: 1 2 3 4 5 6 7 8 9 10 11 12 13
000
FTUS44 KBRO 150538
TAFMFE
TAF
KMFE 150538Z 1506/1606 33005KT P6SM -DZ BKN035 OVC100
     FM150800 36014G20KT 5SM -RA BR OVC025
     FM151500 36014G20KT P6SM -RA OVC015
     FM152100 34015KT 5SM -RA OVC025
     FM160200 33010KT P6SM -RA OVC025=

USA.gov is the U.S. government's official web portal to all federal, state and local government web resources and services.